• Join FlightAware (Why Join?)
  • Login
  • US Flag 
12:20AM EDT


 

Airport Tracker/Info


-or-


 

Live Flight TrackerFlight Track Log ✈ CSN6825 ✈ 24-Apr-2013 ✈ ZWWW / URC - ZWYN / YIN

Flight Track Log - Related Links

Times and Time Zones

All times are in EDT time to prevent confusion due to time zone crossing. See the CSN6825 flight status page for this flight to view local times or setup timezone preferences in your user account.

Time Position Orientation Groundspeed Altitude Reporting Facility
EDT Latitude Longitude Course Direction KTS MPH feet Rate Location/Type
02:12AM 43.9143 87.2627 273° West  Level Estimated
02:13AM 43.9210 87.0511 273° West  Level Estimated
02:14AM 43.9274 86.8395 272° West  Level Estimated
02:15AM 43.9334 86.6279 272° West  Level Estimated
02:16AM 43.9390 86.4162 272° West  Level Estimated
02:17AM 43.9442 86.2044 272° West  Level Estimated
02:18AM 43.9490 85.9927 272° West  Level Estimated
02:19AM 43.9534 85.7808 272° West  Level Estimated
02:20AM 43.9575 85.5690 272° West  Level Estimated
02:21AM 43.9611 85.3571 271° West  Level Estimated
02:22AM 43.9644 85.1452 271° West  Level Estimated
02:23AM 43.9672 84.9333 271° West  Level Estimated
02:24AM 43.9697 84.7214 271° West  Level Estimated
02:25AM 43.9717 84.5095 271° West  Level Estimated
02:26AM 43.9734 84.2975 271° West  Level Estimated
02:27AM 43.9747 84.0855 271° West  Level Estimated
02:28AM 43.9756 83.8735 270° West  Level Estimated
02:29AM 43.9761 83.6616 270° West  Level Estimated
02:30AM 43.9762 83.4496 270° West  Level Estimated
02:31AM 43.9760 83.2376 270° West  Level Estimated
02:32AM 43.9753 83.0256 270° West  Level Estimated
02:33AM 43.9742 82.8136 270° West  Level Estimated
02:34AM 43.9728 82.6016 270° West  Level Estimated
02:35AM 43.9709 82.3897 269° West  Level Estimated
02:36AM 43.9687 82.1777 269° West  Level Estimated
02:37AM 43.9661 81.9658 269° West  Level Estimated
02:38AM 43.9630 81.7539 269° West  Level Estimated
02:39AM 43.9596 81.5420 269° West  Level Estimated
02:40AM 43.9558 81.3303 269° West  Level Estimated
02:41AM 43.9558 81.3303 334° Northwest  Level Estimated
02:42AM 43.9558 81.3303 334° Northwest  Level Estimated
02:43AM 43.9558 81.3303 334° Northwest  Level Estimated
02:44AM 43.9558 81.3303 334° Northwest  Level Estimated
02:45AM 43.9558 81.3303 334° Northwest  Level Estimated
02:46AM 43.9558 81.3303 334° Northwest  Level Estimated
02:47AM 43.9558 81.3303 334° Northwest  Level Estimated
02:48AM 43.9558 81.3303 334° Northwest  Level Estimated
02:49AM 43.9558 81.3303 334° Northwest  Level Estimated
02:50AM 43.9558 81.3303 334° Northwest  Level Estimated
02:51AM 43.9558 81.3303 334° Northwest  Level Estimated
02:52AM 43.9558 81.3303 334° Northwest  Level Estimated
02:53AM 43.9558 81.3303 334° Northwest  Level Estimated
02:54AM 43.9558 81.3303 334° Northwest  Level Estimated
02:55AM 43.9558 81.3303 334° Northwest  Level Estimated